Time,TemperatureF,DewpointF,PressureIn,WindDirection,WindDirectionDegrees,WindSpeedMPH,WindSpeedGustMPH,Humidity,HourlyPrecipIn,Conditions,Clouds,dailyrainin,SoftwareType,DateUTC
2013-04-16 00:00:00,19.9,6.4,29.73,NNW,339,3.6,3.6,55,0.00,,---,0.00,VWS V14.01,2013-04-16 06:00:00,
2013-04-16 00:05:00,19.9,6.4,29.73,NNW,336,2.2,3.6,55,0.00,,---,0.00,VWS V14.01,2013-04-16 06:05:00,
2013-04-16 00:10:00,19.9,6.8,29.76,NNE,12,2.7,6.3,56,0.00,,---,0.00,VWS V14.01,2013-04-16 06:10:00,
2013-04-16 00:15:00,19.9,6.8,29.76,NNW,333,3.6,4.9,56,0.00,,---,0.00,VWS V14.01,2013-04-16 06:15:00,
2013-04-16 00:20:00,19.9,6.8,29.76,NNW,327,0.0,0.0,56,0.00,,---,0.00,VWS V14.01,2013-04-16 06:20:00,
2013-04-16 00:25:00,19.9,6.8,29.76,NE,51,4.9,5.8,56,0.00,,---,0.00,VWS V14.01,2013-04-16 06:25:00,
2013-04-16 00:30:00,19.9,6.8,29.76,NNE,15,0.0,4.0,56,0.00,,---,0.00,VWS V14.01,2013-04-16 06:30:00,
2013-04-16 00:35:00,19.9,7.2,29.76,North,1,4.0,5.8,57,0.00,,---,0.00,VWS V14.01,2013-04-16 06:35:00,
2013-04-16 00:40:00,19.9,7.2,29.76,NNW,332,4.0,4.0,57,0.00,,---,0.00,VWS V14.01,2013-04-16 06:40:00,
2013-04-16 00:45:00,19.9,7.2,29.76,NNE,14,3.1,3.1,57,0.00,,---,0.00,VWS V14.01,2013-04-16 06:45:00,
2013-04-16 00:50:00,19.8,7.4,29.76,NNW,332,7.2,7.2,58,0.00,,---,0.00,VWS V14.01,2013-04-16 06:50:00,
2013-04-16 00:55:00,19.8,7.0,29.73,North,353,5.4,5.4,57,0.00,,---,0.00,VWS V14.01,2013-04-16 06:55:00,
2013-04-16 01:00:00,19.6,7.2,29.73,NNE,28,0.0,3.6,58,0.00,,---,0.00,VWS V14.01,2013-04-16 07:00:00,
2013-04-16 01:05:00,19.6,7.2,29.73,NE,42,2.7,3.1,58,0.00,,---,0.00,VWS V14.01,2013-04-16 07:05:00,
2013-04-16 01:10:00,19.6,7.2,29.73,NE,43,0.0,0.0,58,0.00,,---,0.00,VWS V14.01,2013-04-16 07:10:00,
2013-04-16 01:15:00,19.4,7.4,29.73,North,11,0.0,0.0,59,0.00,,---,0.00,VWS V14.01,2013-04-16 07:15:00,
2013-04-16 01:20:00,19.4,7.4,29.73,NNE,31,4.9,4.9,59,0.00,,---,0.00,VWS V14.01,2013-04-16 07:20:00,
2013-04-16 01:25:00,19.2,7.2,29.73,NW,305,4.9,4.9,59,0.00,,---,0.00,VWS V14.01,2013-04-16 07:25:00,
2013-04-16 01:30:00,19.2,7.6,29.73,NNW,330,0.0,0.0,60,0.00,,---,0.00,VWS V14.01,2013-04-16 07:30:00,
2013-04-16 01:35:00,19.2,7.6,29.73,North,349,0.0,2.2,60,0.00,,---,0.00,VWS V14.01,2013-04-16 07:35:00,
2013-04-16 01:40:00,19.2,7.6,29.73,NW,323,2.7,3.6,60,0.00,,---,0.00,VWS V14.01,2013-04-16 07:40:00,
2013-04-16 01:45:00,19.0,7.4,29.73,NW,315,4.0,5.4,60,0.00,,---,0.00,VWS V14.01,2013-04-16 07:45:00,
2013-04-16 01:50:00,19.0,7.4,29.73,North,353,3.1,5.4,60,0.00,,---,0.00,VWS V14.01,2013-04-16 07:50:00,
2013-04-16 01:55:00,18.9,7.3,29.73,NW,321,5.4,5.8,60,0.00,,---,0.00,VWS V14.01,2013-04-16 07:55:00,
2013-04-16 02:00:00,18.9,7.3,29.73,NNW,345,5.4,7.6,60,0.00,,---,0.00,VWS V14.01,2013-04-16 08:00:00,
2013-04-16 02:05:00,18.9,7.3,29.76,NW,326,2.2,2.2,60,0.00,,---,0.00,VWS V14.01,2013-04-16 08:05:00,
2013-04-16 02:10:00,19.0,7.1,29.76,NNE,20,0.0,0.0,59,0.00,,---,0.00,VWS V14.01,2013-04-16 08:10:00,
2013-04-16 02:15:00,19.0,7.1,29.76,NW,318,0.0,6.3,59,0.00,,---,0.00,VWS V14.01,2013-04-16 08:15:00,
2013-04-16 02:20:00,19.0,7.1,29.76,NNE,14,3.6,4.0,59,0.00,,---,0.00,VWS V14.01,2013-04-16 08:20:00,
2013-04-16 02:25:00,19.0,6.7,29.76,North,8,4.0,4.9,58,0.00,,---,0.00,VWS V14.01,2013-04-16 08:25:00,
2013-04-16 02:30:00,19.2,6.9,29.76,NW,318,3.1,3.1,58,0.00,,---,0.00,VWS V14.01,2013-04-16 08:30:00,
2013-04-16 02:35:00,19.2,6.9,29.76,ENE,57,4.0,4.0,58,0.00,,---,0.00,VWS V14.01,2013-04-16 08:35:00,
2013-04-16 02:40:00,19.2,6.5,29.76,North,4,3.6,6.3,57,0.00,,---,0.00,VWS V14.01,2013-04-16 08:40:00,
2013-04-16 02:45:00,19.2,6.5,29.76,North,2,3.1,3.1,57,0.00,,---,0.00,VWS V14.01,2013-04-16 08:45:00,
2013-04-16 02:50:00,19.2,6.5,29.76,North,353,8.3,8.3,57,0.00,,---,0.00,VWS V14.01,2013-04-16 08:50:00,
2013-04-16 02:55:00,19.2,6.5,29.73,North,357,4.9,4.9,57,0.00,,---,0.00,VWS V14.01,2013-04-16 08:55:00,
2013-04-16 03:00:00,19.2,6.5,29.73,NNW,344,4.9,4.9,57,0.00,,---,0.00,VWS V14.01,2013-04-16 09:00:00,
2013-04-16 03:05:00,19.0,6.7,29.73,NNE,32,4.0,4.9,58,0.00,,---,0.00,VWS V14.01,2013-04-16 09:05:00,
2013-04-16 03:10:00,19.0,6.7,29.76,NE,47,4.9,5.4,58,0.00,,---,0.00,VWS V14.01,2013-04-16 09:10:00,
2013-04-16 03:15:00,19.2,6.9,29.76,NNE,20,5.4,6.3,58,0.00,,---,0.00,VWS V14.01,2013-04-16 09:15:00,
2013-04-16 03:20:00,19.0,7.1,29.76,NE,37,0.0,0.0,59,0.00,,---,0.00,VWS V14.01,2013-04-16 09:20:00,
2013-04-16 03:25:00,19.0,7.1,29.76,NNW,346,4.0,4.0,59,0.00,,---,0.00,VWS V14.01,2013-04-16 09:25:00,
2013-04-16 03:30:00,19.0,7.1,29.76,NNW,338,3.6,3.6,59,0.00,,---,0.00,VWS V14.01,2013-04-16 09:30:00,
2013-04-16 03:35:00,19.0,7.1,29.76,NNE,17,3.1,3.1,59,0.00,,---,0.00,VWS V14.01,2013-04-16 09:35:00,
2013-04-16 03:40:00,19.0,7.1,29.76,NNE,28,0.0,5.4,59,0.00,,---,0.00,VWS V14.01,2013-04-16 09:40:00,
2013-04-16 03:45:00,19.0,7.1,29.76,NNE,17,0.0,5.4,59,0.00,,---,0.00,VWS V14.01,2013-04-16 09:45:00,
2013-04-16 03:50:00,19.0,7.1,29.76,North,1,2.2,5.4,59,0.00,,---,0.00,VWS V14.01,2013-04-16 09:50:00,
2013-04-16 03:55:00,19.0,7.4,29.76,NNE,24,3.6,3.6,60,0.00,,---,0.00,VWS V14.01,2013-04-16 09:55:00,
2013-04-16 04:00:00,19.0,7.4,29.76,NNE,16,5.4,5.4,60,0.00,,---,0.00,VWS V14.01,2013-04-16 10:00:00,
2013-04-16 04:05:00,18.7,7.1,29.76,NNE,18,8.7,8.7,60,0.00,,---,0.00,VWS V14.01,2013-04-16 10:05:00,
2013-04-16 04:10:00,18.7,7.1,29.76,North,10,0.0,0.0,60,0.00,,---,0.00,VWS V14.01,2013-04-16 10:10:00,
2013-04-16 04:15:00,18.7,7.1,29.76,North,9,5.4,8.1,60,0.00,,---,0.00,VWS V14.01,2013-04-16 10:15:00,
2013-04-16 04:20:00,18.5,7.3,29.76,NNE,25,0.0,0.0,61,0.00,,---,0.00,VWS V14.01,2013-04-16 10:20:00,
2013-04-16 04:25:00,18.5,7.7,29.76,NNW,345,3.1,5.4,62,0.00,,---,0.00,VWS V14.01,2013-04-16 10:25:00,
2013-04-16 04:30:00,18.5,7.7,29.76,NW,312,2.7,2.7,62,0.00,,---,0.00,VWS V14.01,2013-04-16 10:30:00,
2013-04-16 04:35:00,18.5,8.0,29.76,North,8,0.0,2.7,63,0.00,,---,0.00,VWS V14.01,2013-04-16 10:35:00,
2013-04-16 04:40:00,18.5,7.7,29.76,NW,322,4.0,4.0,62,0.00,,---,0.00,VWS V14.01,2013-04-16 10:40:00,
2013-04-16 04:45:00,18.5,7.7,29.76,NW,320,5.8,5.8,62,0.00,,---,0.00,VWS V14.01,2013-04-16 10:45:00,
2013-04-16 04:49:00,18.5,7.3,29.76,North,3,8.3,8.3,61,0.00,,---,0.00,VWS V14.01,2013-04-16 10:49:00,
2013-04-16 04:54:00,18.3,6.8,29.76,NNW,330,5.8,5.8,60,0.00,,---,0.00,VWS V14.01,2013-04-16 10:54:00,
2013-04-16 04:59:00,18.3,6.8,29.76,NW,326,4.9,4.9,60,0.00,,---,0.00,VWS V14.01,2013-04-16 10:59:00,
2013-04-16 05:04:00,18.3,6.8,29.76,North,9,0.0,5.4,60,0.00,,---,0.00,VWS V14.01,2013-04-16 11:04:00,
2013-04-16 05:09:00,18.3,6.8,29.76,NNW,340,0.0,2.7,60,0.00,,---,0.00,VWS V14.01,2013-04-16 11:09:00,
2013-04-16 05:14:00,18.1,6.2,29.76,North,357,0.0,4.0,59,0.00,,---,0.00,VWS V14.01,2013-04-16 11:14:00,
2013-04-16 05:19:00,18.1,6.2,29.76,NNW,343,0.0,3.1,59,0.00,,---,0.00,VWS V14.01,2013-04-16 11:19:00,
2013-04-16 05:24:00,18.1,6.2,29.79,NNE,33,2.2,4.0,59,0.00,,---,0.00,VWS V14.01,2013-04-16 11:24:00,
2013-04-16 05:29:00,18.1,6.2,29.79,NW,321,0.0,4.9,59,0.00,,---,0.00,VWS V14.01,2013-04-16 11:29:00,
2013-04-16 05:34:00,18.1,5.9,29.79,North,8,0.0,4.0,58,0.00,,---,0.00,VWS V14.01,2013-04-16 11:34:00,
2013-04-16 05:39:00,18.1,5.9,29.79,NNW,337,3.1,4.5,58,0.00,,---,0.00,VWS V14.01,2013-04-16 11:39:00,
2013-04-16 05:44:00,18.1,5.9,29.79,NNW,338,0.0,2.7,58,0.00,,---,0.00,VWS V14.01,2013-04-16 11:44:00,
2013-04-16 05:49:00,18.1,5.5,29.79,NNW,330,5.8,5.8,57,0.00,,---,0.00,VWS V14.01,2013-04-16 11:49:00,
2013-04-16 05:54:00,18.1,5.5,29.76,North,353,3.6,3.6,57,0.00,,---,0.00,VWS V14.01,2013-04-16 11:54:00,
2013-04-16 05:59:00,18.1,5.1,29.76,NE,44,3.1,3.6,56,0.00,,---,0.00,VWS V14.01,2013-04-16 11:59:00,
2013-04-16 06:04:00,18.1,5.1,29.76,NW,317,0.0,4.0,56,0.00,,---,0.00,VWS V14.01,2013-04-16 12:04:00,
2013-04-16 06:09:00,18.1,4.7,29.79,North,5,4.0,5.8,55,0.00,,---,0.00,VWS V14.01,2013-04-16 12:09:00,
2013-04-16 06:14:00,18.1,4.7,29.79,NNE,15,0.0,4.0,55,0.00,,---,0.00,VWS V14.01,2013-04-16 12:14:00,
2013-04-16 06:19:00,18.0,4.5,29.79,North,2,4.0,5.4,55,0.00,,---,0.00,VWS V14.01,2013-04-16 12:19:00,
2013-04-16 06:24:00,18.0,4.1,29.79,NE,56,2.7,3.1,54,0.00,,---,0.00,VWS V14.01,2013-04-16 12:24:00,
2013-04-16 06:29:00,18.0,4.5,29.79,NE,51,0.0,3.6,55,0.00,,---,0.00,VWS V14.01,2013-04-16 12:29:00,
2013-04-16 06:34:00,18.0,4.5,29.79,NE,37,0.0,0.0,55,0.00,,---,0.00,VWS V14.01,2013-04-16 12:34:00,
2013-04-16 06:39:00,18.1,4.7,29.76,NW,324,2.2,3.1,55,0.00,,---,0.00,VWS V14.01,2013-04-16 12:39:00,
2013-04-16 06:44:00,18.0,4.5,29.76,NNW,341,0.0,4.0,55,0.00,,---,0.00,VWS V14.01,2013-04-16 12:44:00,
2013-04-16 06:49:00,18.0,4.1,29.76,NNW,328,3.1,4.9,54,0.00,,---,0.00,VWS V14.01,2013-04-16 12:49:00,
2013-04-16 06:54:00,18.0,4.1,29.76,NW,321,5.8,5.8,54,0.00,,---,0.00,VWS V14.01,2013-04-16 12:54:00,
2013-04-16 06:59:00,18.1,4.3,29.76,North,4,3.6,3.6,54,0.00,,---,0.00,VWS V14.01,2013-04-16 12:59:00,
2013-04-16 07:04:00,18.3,4.5,29.76,North,3,6.3,8.3,54,0.00,,---,0.00,VWS V14.01,2013-04-16 13:04:00,
2013-04-16 07:09:00,18.3,4.1,29.79,North,4,0.0,0.0,53,0.00,,---,0.00,VWS V14.01,2013-04-16 13:09:00,
2013-04-16 07:14:00,18.5,4.2,29.79,NNW,344,0.0,3.6,53,0.00,,---,0.00,VWS V14.01,2013-04-16 13:14:00,
2013-04-16 07:19:00,18.7,4.4,29.79,NNE,27,2.7,8.1,53,0.00,,---,0.00,VWS V14.01,2013-04-16 13:19:00,
2013-04-16 07:24:00,18.7,4.4,29.79,North,349,0.0,0.0,53,0.00,,---,0.00,VWS V14.01,2013-04-16 13:24:00,
2013-04-16 07:29:00,18.7,4.8,29.79,North,6,2.2,5.8,54,0.00,,---,0.00,VWS V14.01,2013-04-16 13:29:00,
2013-04-16 07:34:00,18.5,4.2,29.79,NW,325,2.7,3.1,53,0.00,,---,0.00,VWS V14.01,2013-04-16 13:34:00,
2013-04-16 07:39:00,18.3,4.5,29.79,North,7,5.8,7.6,54,0.00,,---,0.00,VWS V14.01,2013-04-16 13:39:00,
2013-04-16 07:44:00,18.3,4.5,29.79,NNW,339,2.2,7.2,54,0.00,,---,0.00,VWS V14.01,2013-04-16 13:44:00,
2013-04-16 07:49:00,18.5,5.0,29.79,NNE,14,4.9,5.8,55,0.00,,---,0.00,VWS V14.01,2013-04-16 13:49:00,
2013-04-16 07:54:00,19.0,5.5,29.79,NNE,31,0.0,5.4,55,0.00,,---,0.00,VWS V14.01,2013-04-16 13:54:00,
2013-04-16 07:59:00,19.4,5.9,29.79,North,6,3.6,3.6,55,0.00,,---,0.00,VWS V14.01,2013-04-16 13:59:00,
2013-04-16 08:04:00,19.9,6.0,29.79,NNE,22,5.4,7.2,54,0.00,,---,0.00,VWS V14.01,2013-04-16 14:04:00,
2013-04-16 08:09:00,20.3,6.3,29.79,NW,310,4.0,4.0,54,0.00,,---,0.00,VWS V14.01,2013-04-16 14:09:00,
2013-04-16 08:14:00,20.7,6.2,29.79,NW,304,4.0,5.4,53,0.00,,---,0.00,VWS V14.01,2013-04-16 14:14:00,
2013-04-16 08:19:00,20.7,5.4,29.79,NNW,339,2.7,4.9,51,0.00,,---,0.00,VWS V14.01,2013-04-16 14:19:00,
2013-04-16 08:24:00,21.2,5.9,29.79,NNE,17,0.0,5.8,51,0.00,,---,0.00,VWS V14.01,2013-04-16 14:24:00,
2013-04-16 08:29:00,22.1,5.9,29.79,NNE,20,5.4,5.4,49,0.00,,---,0.00,VWS V14.01,2013-04-16 14:29:00,
2013-04-16 08:34:00,22.1,5.4,29.79,North,353,3.1,4.0,48,0.00,,---,0.00,VWS V14.01,2013-04-16 14:34:00,
2013-04-16 08:39:00,22.1,4.5,29.79,NNE,16,10.1,10.1,46,0.00,,---,0.00,VWS V14.01,2013-04-16 14:39:00,
2013-04-16 08:44:00,21.9,4.3,29.79,NW,310,7.6,7.6,46,0.00,,---,0.00,VWS V14.01,2013-04-16 14:44:00,
2013-04-16 08:49:00,21.7,4.2,29.79,North,353,2.2,3.1,46,0.00,,---,0.00,VWS V14.01,2013-04-16 14:49:00,
2013-04-16 08:54:00,22.3,4.7,29.79,NE,34,6.7,8.7,46,0.00,,---,0.00,VWS V14.01,2013-04-16 14:54:00,
2013-04-16 08:59:00,22.6,5.0,29.79,ENE,67,2.7,3.1,46,0.00,,---,0.00,VWS V14.01,2013-04-16 14:59:00,
2013-04-16 09:04:00,23.2,5.0,29.79,North,9,2.7,4.9,45,0.00,,---,0.00,VWS V14.01,2013-04-16 15:04:00,
2013-04-16 09:09:00,23.2,4.5,29.79,North,357,5.8,9.6,44,0.00,,---,0.00,VWS V14.01,2013-04-16 15:09:00,
2013-04-16 09:14:00,22.8,4.7,29.79,NW,326,2.7,4.9,45,0.00,,---,0.00,VWS V14.01,2013-04-16 15:14:00,
2013-04-16 09:19:00,22.5,3.9,29.79,NNE,26,8.7,8.7,44,0.00,,---,0.00,VWS V14.01,2013-04-16 15:19:00,
2013-04-16 09:24:00,22.3,3.7,29.79,NNE,23,8.7,8.7,44,0.00,,---,0.00,VWS V14.01,2013-04-16 15:24:00,
2013-04-16 09:29:00,22.5,3.9,29.79,NNE,29,4.9,4.9,44,0.00,,---,0.00,VWS V14.01,2013-04-16 15:29:00,
2013-04-16 09:34:00,23.0,4.3,29.79,NW,307,10.5,10.5,44,0.00,,---,0.00,VWS V14.01,2013-04-16 15:34:00,
2013-04-16 09:39:00,23.4,4.2,29.79,NE,52,3.6,8.3,43,0.00,,---,0.00,VWS V14.01,2013-04-16 15:39:00,
2013-04-16 09:44:00,23.9,5.2,29.79,ENE,62,3.1,7.2,44,0.00,,---,0.00,VWS V14.01,2013-04-16 15:44:00,
2013-04-16 09:49:00,24.1,4.8,29.79,NNW,327,5.8,5.8,43,0.00,,---,0.00,VWS V14.01,2013-04-16 15:49:00,
2013-04-16 09:54:00,23.5,4.3,29.79,North,353,0.0,2.7,43,0.00,,---,0.00,VWS V14.01,2013-04-16 15:54:00,
2013-04-16 09:59:00,23.4,4.2,29.79,NNE,15,5.8,11.0,43,0.00,,---,0.00,VWS V14.01,2013-04-16 15:59:00,
2013-04-16 10:04:00,23.2,4.0,29.79,NNE,20,8.3,8.3,43,0.00,,---,0.00,VWS V14.01,2013-04-16 16:04:00,
2013-04-16 10:09:00,23.7,4.5,29.79,NNE,15,11.0,11.0,43,0.00,,---,0.00,VWS V14.01,2013-04-16 16:09:00,
2013-04-16 10:14:00,24.3,5.0,29.79,ENE,68,3.1,5.4,43,0.00,,---,0.00,VWS V14.01,2013-04-16 16:14:00,
2013-04-16 10:19:00,24.8,5.0,29.79,NNE,15,4.0,8.3,42,0.00,,---,0.00,VWS V14.01,2013-04-16 16:19:00,
2013-04-16 10:24:00,25.2,5.3,29.79,NE,50,5.4,8.7,42,0.00,,---,0.00,VWS V14.01,2013-04-16 16:24:00,
2013-04-16 10:29:00,25.3,5.5,29.79,North,0,8.3,8.7,42,0.00,,---,0.00,VWS V14.01,2013-04-16 16:29:00,
2013-04-16 10:34:00,25.3,5.5,29.79,North,10,8.3,8.3,42,0.00,,---,0.00,VWS V14.01,2013-04-16 16:34:00,
2013-04-16 10:39:00,25.9,6.0,29.79,NNW,337,2.7,5.4,42,0.00,,---,0.00,VWS V14.01,2013-04-16 16:39:00,
2013-04-16 10:44:00,25.9,5.4,29.79,North,1,4.0,8.7,41,0.00,,---,0.00,VWS V14.01,2013-04-16 16:44:00,
2013-04-16 10:49:00,25.7,5.3,29.79,NNW,337,4.5,6.3,41,0.00,,---,0.00,VWS V14.01,2013-04-16 16:49:00,
2013-04-16 10:54:00,24.8,4.4,29.79,North,2,3.6,5.8,41,0.00,,---,0.00,VWS V14.01,2013-04-16 16:54:00,
2013-04-16 10:59:00,24.8,5.0,29.79,NE,43,13.2,13.2,42,0.00,,---,0.00,VWS V14.01,2013-04-16 16:59:00,
2013-04-16 11:04:00,25.7,5.3,29.79,NNE,19,4.0,7.6,41,0.00,,---,0.00,VWS V14.01,2013-04-16 17:04:00,
2013-04-16 11:09:00,25.2,4.8,29.79,NW,316,8.3,8.3,41,0.00,,---,0.00,VWS V14.01,2013-04-16 17:09:00,
2013-04-16 11:14:00,25.0,4.6,29.79,NW,306,8.1,8.1,41,0.00,,---,0.00,VWS V14.01,2013-04-16 17:14:00,
2013-04-16 11:19:00,25.3,4.9,29.79,East,86,2.7,4.0,41,0.00,,---,0.00,VWS V14.01,2013-04-16 17:19:00,
2013-04-16 11:24:00,26.2,5.8,29.79,North,0,8.3,8.7,41,0.00,,---,0.00,VWS V14.01,2013-04-16 17:24:00,
2013-04-16 11:29:00,26.6,6.1,29.79,NNW,340,4.0,5.8,41,0.00,,---,0.00,VWS V14.01,2013-04-16 17:29:00,
2013-04-16 11:34:00,26.6,6.1,29.79,NNE,28,8.1,8.1,41,0.00,,---,0.00,VWS V14.01,2013-04-16 17:34:00,
2013-04-16 11:39:00,26.1,4.5,29.82,NW,315,2.7,8.1,39,0.00,,---,0.00,VWS V14.01,2013-04-16 17:39:00,
2013-04-16 11:44:00,26.6,5.6,29.82,NE,34,3.6,11.0,40,0.00,,---,0.00,VWS V14.01,2013-04-16 17:44:00,
2013-04-16 11:49:00,26.4,4.8,29.82,NNE,33,8.3,8.3,39,0.00,,---,0.00,VWS V14.01,2013-04-16 17:49:00,
2013-04-16 11:54:00,26.2,4.7,29.82,NNW,340,10.1,10.1,39,0.00,,---,0.00,VWS V14.01,2013-04-16 17:54:00,
2013-04-16 11:59:00,26.4,4.8,29.82,NNE,27,8.7,8.7,39,0.00,,---,0.00,VWS V14.01,2013-04-16 17:59:00,
2013-04-16 12:04:00,27.0,5.3,29.82,NE,40,4.9,5.8,39,0.00,,---,0.00,VWS V14.01,2013-04-16 18:04:00,
2013-04-16 12:09:00,27.9,6.1,29.82,NNE,14,10.5,11.0,39,0.00,,---,0.00,VWS V14.01,2013-04-16 18:09:00,
2013-04-16 12:14:00,27.3,5.1,29.82,WNW,283,9.2,9.2,38,0.00,,---,0.00,VWS V14.01,2013-04-16 18:14:00,
2013-04-16 12:19:00,25.9,4.3,29.82,NE,48,3.1,7.6,39,0.00,,---,0.00,VWS V14.01,2013-04-16 18:19:00,
2013-04-16 12:24:00,27.1,6.0,29.79,NW,323,6.7,7.2,40,0.00,,---,0.00,VWS V14.01,2013-04-16 18:24:00,
2013-04-16 12:29:00,27.0,4.8,29.79,NNW,348,5.8,5.8,38,0.00,,---,0.00,VWS V14.01,2013-04-16 18:29:00,
2013-04-16 12:34:00,26.6,5.6,29.79,North,349,4.0,6.7,40,0.00,,---,0.00,VWS V14.01,2013-04-16 18:34:00,
2013-04-16 12:39:00,26.8,5.2,29.82,NNE,30,7.6,7.6,39,0.00,,---,0.00,VWS V14.01,2013-04-16 18:39:00,
2013-04-16 12:44:00,27.0,5.3,29.82,WNW,293,14.5,14.5,39,0.00,,---,0.00,VWS V14.01,2013-04-16 18:44:00,
2013-04-16 12:49:00,27.7,6.5,29.82,North,353,6.3,6.3,40,0.00,,---,0.00,VWS V14.01,2013-04-16 18:49:00,
2013-04-16 12:54:00,28.0,6.3,29.82,NW,321,6.3,6.3,39,0.00,,---,0.00,VWS V14.01,2013-04-16 18:54:00,
2013-04-16 12:59:00,28.4,6.6,29.82,NNE,22,4.0,5.8,39,0.00,,---,0.00,VWS V14.01,2013-04-16 18:59:00,
2013-04-16 13:04:00,28.2,5.3,29.82,ENE,64,5.8,8.7,37,0.00,,---,0.00,VWS V14.01,2013-04-16 19:04:00,
2013-04-16 13:09:00,27.3,4.5,29.82,North,2,5.8,5.8,37,0.00,,---,0.00,VWS V14.01,2013-04-16 19:09:00,
2013-04-16 13:14:00,27.3,4.5,29.82,North,10,11.0,11.0,37,0.00,,---,0.00,VWS V14.01,2013-04-16 19:14:00,
2013-04-16 13:19:00,27.9,5.6,29.82,North,1,10.1,10.1,38,0.00,,---,0.00,VWS V14.01,2013-04-16 19:19:00,
2013-04-16 13:24:00,28.4,5.5,29.79,NNW,331,8.7,8.7,37,0.00,,---,0.00,VWS V14.01,2013-04-16 19:24:00,
2013-04-16 13:29:00,28.2,5.9,29.79,NNE,19,5.8,5.8,38,0.00,,---,0.00,VWS V14.01,2013-04-16 19:29:00,
2013-04-16 13:34:00,28.6,5.6,29.79,ESE,108,10.5,11.0,37,0.00,,---,0.00,VWS V14.01,2013-04-16 19:34:00,
2013-04-16 13:39:00,28.2,5.3,29.79,North,353,8.3,8.3,37,0.00,,---,0.00,VWS V14.01,2013-04-16 19:39:00,
2013-04-16 13:44:00,28.0,4.5,29.79,North,4,8.7,9.6,36,0.00,,---,0.00,VWS V14.01,2013-04-16 19:44:00,
2013-04-16 13:49:00,29.1,6.1,29.79,NNW,334,3.6,8.3,37,0.00,,---,0.00,VWS V14.01,2013-04-16 19:49:00,
2013-04-16 13:54:00,29.1,5.5,29.79,North,349,9.6,9.6,36,0.00,,---,0.00,VWS V14.01,2013-04-16 19:54:00,
2013-04-16 13:59:00,29.5,5.2,29.79,ENE,72,8.7,8.7,35,0.00,,---,0.00,VWS V14.01,2013-04-16 19:59:00,
2013-04-16 14:04:00,28.4,4.2,29.79,NNW,338,5.4,5.4,35,0.00,,---,0.00,VWS V14.01,2013-04-16 20:04:00,
2013-04-16 14:09:00,28.9,5.3,29.79,ENE,78,2.7,6.3,36,0.00,,---,0.00,VWS V14.01,2013-04-16 20:09:00,
2013-04-16 14:14:00,29.8,5.5,29.79,NE,42,3.6,3.6,35,0.00,,---,0.00,VWS V14.01,2013-04-16 20:14:00,
2013-04-16 14:19:00,29.3,4.4,29.79,NW,326,5.4,6.7,34,0.00,,---,0.00,VWS V14.01,2013-04-16 20:19:00,
2013-04-16 14:24:00,28.4,4.2,29.79,North,9,8.1,8.1,35,0.00,,---,0.00,VWS V14.01,2013-04-16 20:24:00,
2013-04-16 14:29:00,28.6,3.8,29.79,NE,37,5.8,5.8,34,0.00,,---,0.00,VWS V14.01,2013-04-16 20:29:00,
2013-04-16 14:34:00,28.6,3.8,29.79,NW,321,6.3,6.3,34,0.00,,---,0.00,VWS V14.01,2013-04-16 20:34:00,
2013-04-16 14:39:00,29.3,5.1,29.79,North,353,2.7,4.0,35,0.00,,---,0.00,VWS V14.01,2013-04-16 20:39:00,
2013-04-16 14:44:00,29.3,5.1,29.79,NNW,341,3.1,8.3,35,0.00,,---,0.00,VWS V14.01,2013-04-16 20:44:00,
2013-04-16 14:49:00,29.3,5.1,29.79,WNW,289,8.1,10.5,35,0.00,,---,0.00,VWS V14.01,2013-04-16 20:49:00,
2013-04-16 14:54:00,28.8,3.9,29.82,NW,317,5.4,5.4,34,0.00,,---,0.00,VWS V14.01,2013-04-16 20:54:00,
2013-04-16 14:59:00,28.4,4.2,29.82,NE,44,8.3,8.3,35,0.00,,---,0.00,VWS V14.01,2013-04-16 20:59:00,
2013-04-16 15:04:00,28.9,4.7,29.82,NE,53,5.8,7.2,35,0.00,,---,0.00,VWS V14.01,2013-04-16 21:04:00,
2013-04-16 15:09:00,28.4,3.6,29.82,NE,39,3.6,3.6,34,0.00,,---,0.00,VWS V14.01,2013-04-16 21:09:00,
2013-04-16 15:14:00,28.8,3.9,29.82,NNW,342,6.3,12.8,34,0.00,,---,0.00,VWS V14.01,2013-04-16 21:14:00,
2013-04-16 15:19:00,29.5,4.6,29.82,North,357,8.1,8.1,34,0.00,,---,0.00,VWS V14.01,2013-04-16 21:19:00,
2013-04-16 15:24:00,30.0,5.1,29.82,NNW,327,7.6,10.1,34,0.00,,---,0.00,VWS V14.01,2013-04-16 21:24:00,
2013-04-16 15:29:00,28.9,4.1,29.82,NE,39,8.1,12.8,34,0.00,,---,0.00,VWS V14.01,2013-04-16 21:29:00,
2013-04-16 15:34:00,28.6,3.8,29.82,NNW,337,6.3,6.3,34,0.00,,---,0.00,VWS V14.01,2013-04-16 21:34:00,
2013-04-16 15:39:00,28.2,3.5,29.82,WNW,299,8.3,8.3,34,0.00,,---,0.00,VWS V14.01,2013-04-16 21:39:00,
2013-04-16 15:44:00,29.1,4.9,29.82,NE,48,5.4,5.4,35,0.00,,---,0.00,VWS V14.01,2013-04-16 21:44:00,
2013-04-16 15:49:00,29.8,4.9,29.82,NNE,18,6.7,7.6,34,0.00,,---,0.00,VWS V14.01,2013-04-16 21:49:00,
2013-04-16 15:54:00,30.0,5.1,29.82,WNW,303,8.7,8.7,34,0.00,,---,0.00,VWS V14.01,2013-04-16 21:54:00,
2013-04-16 15:59:00,30.6,5.5,29.82,North,357,4.0,5.8,34,0.00,,---,0.00,VWS V14.01,2013-04-16 21:59:00,
2013-04-16 16:04:00,31.5,6.3,29.82,NNE,28,3.1,12.8,34,0.00,,---,0.00,VWS V14.01,2013-04-16 22:04:00,
2013-04-16 16:09:00,31.1,5.4,29.82,NW,318,4.0,5.8,33,0.00,,---,0.00,VWS V14.01,2013-04-16 22:09:00,
2013-04-16 16:14:00,30.4,4.7,29.82,North,357,3.6,11.0,33,0.00,,---,0.00,VWS V14.01,2013-04-16 22:14:00,
2013-04-16 16:19:00,31.1,5.4,29.82,West,273,3.1,3.1,33,0.00,,---,0.00,VWS V14.01,2013-04-16 22:19:00,
2013-04-16 16:24:00,31.8,6.0,29.79,North,2,4.0,5.8,33,0.00,,---,0.00,VWS V14.01,2013-04-16 22:24:00,
2013-04-16 16:29:00,32.0,5.5,29.79,NNE,13,8.3,10.5,32,0.00,,---,0.00,VWS V14.01,2013-04-16 22:29:00,
2013-04-16 16:34:00,31.5,5.7,29.79,ENE,57,8.1,15.0,33,0.00,,---,0.00,VWS V14.01,2013-04-16 22:34:00,
2013-04-16 16:39:00,32.4,5.8,29.82,NNW,340,5.8,8.1,32,0.00,,---,0.00,VWS V14.01,2013-04-16 22:39:00,
2013-04-16 16:43:00,31.6,5.2,29.82,North,353,5.4,8.3,32,0.00,,---,0.00,VWS V14.01,2013-04-16 22:43:00,
2013-04-16 16:48:00,31.6,5.2,29.82,NW,307,4.0,7.6,32,0.00,,---,0.00,VWS V14.01,2013-04-16 22:48:00,
2013-04-16 16:53:00,31.5,5.0,29.82,NE,36,5.4,8.7,32,0.00,,---,0.00,VWS V14.01,2013-04-16 22:53:00,
2013-04-16 16:58:00,31.3,5.5,29.82,North,357,8.7,8.7,33,0.00,,---,0.00,VWS V14.01,2013-04-16 22:58:00,
2013-04-16 17:03:00,29.8,4.2,29.82,NNE,25,5.8,10.5,33,0.00,,---,0.00,VWS V14.01,2013-04-16 23:03:00,
2013-04-16 17:08:00,29.7,4.1,29.82,North,357,2.7,2.7,33,0.00,,---,0.00,VWS V14.01,2013-04-16 23:08:00,
2013-04-16 17:13:00,30.2,4.6,29.82,North,0,2.7,8.1,33,0.00,,---,0.00,VWS V14.01,2013-04-16 23:13:00,
2013-04-16 17:18:00,30.2,5.2,29.82,NNE,23,6.3,6.7,34,0.00,,---,0.00,VWS V14.01,2013-04-16 23:18:00,
2013-04-16 17:23:00,30.2,5.2,29.82,NNE,23,3.6,9.2,34,0.00,,---,0.00,VWS V14.01,2013-04-16 23:23:00,
2013-04-16 17:28:00,29.5,4.6,29.82,WNW,292,4.0,8.7,34,0.00,,---,0.00,VWS V14.01,2013-04-16 23:28:00,
2013-04-16 17:33:00,29.1,4.9,29.82,North,5,8.3,10.5,35,0.00,,---,0.00,VWS V14.01,2013-04-16 23:33:00,
2013-04-16 17:38:00,28.0,3.9,29.85,North,357,8.7,8.7,35,0.00,,---,0.00,VWS V14.01,2013-04-16 23:38:00,
2013-04-16 17:43:00,27.7,3.6,29.85,North,6,2.7,4.0,35,0.00,,---,0.00,VWS V14.01,2013-04-16 23:43:00,
2013-04-16 17:48:00,28.4,4.2,29.85,NE,44,4.0,8.1,35,0.00,,---,0.00,VWS V14.01,2013-04-16 23:48:00,
2013-04-16 17:53:00,29.5,5.8,29.82,NE,39,6.3,6.3,36,0.00,,---,0.00,VWS V14.01,2013-04-16 23:53:00,
2013-04-16 17:58:00,28.9,4.7,29.82,WNW,298,10.5,10.5,35,0.00,,---,0.00,VWS V14.01,2013-04-16 23:58:00,
2013-04-16 18:03:00,28.2,4.1,29.82,North,3,4.9,5.8,35,0.00,,---,0.00,VWS V14.01,2013-04-17 00:03:00,
2013-04-16 18:08:00,28.6,3.8,29.85,North,1,7.6,8.1,34,0.00,,---,0.00,VWS V14.01,2013-04-17 00:08:00,
2013-04-16 18:13:00,29.1,4.3,29.85,NNW,333,6.3,7.2,34,0.00,,---,0.00,VWS V14.01,2013-04-17 00:13:00,
2013-04-16 18:18:00,29.1,4.3,29.85,NE,50,3.1,4.9,34,0.00,,---,0.00,VWS V14.01,2013-04-17 00:18:00,
2013-04-16 18:23:00,29.5,4.6,29.82,NNW,330,5.4,11.0,34,0.00,,---,0.00,VWS V14.01,2013-04-17 00:23:00,
2013-04-16 18:28:00,28.9,4.1,29.82,NW,316,4.9,6.3,34,0.00,,---,0.00,VWS V14.01,2013-04-17 00:28:00,
2013-04-16 18:33:00,28.2,4.1,29.82,NNW,336,8.3,8.3,35,0.00,,---,0.00,VWS V14.01,2013-04-17 00:33:00,
2013-04-16 18:38:00,27.9,3.8,29.85,North,357,6.3,6.3,35,0.00,,---,0.00,VWS V14.01,2013-04-17 00:38:00,
2013-04-16 18:43:00,27.0,3.6,29.85,NNE,27,5.8,12.8,36,0.00,,---,0.00,VWS V14.01,2013-04-17 00:43:00,
2013-04-16 18:48:00,26.4,3.1,29.85,ESE,111,3.1,8.3,36,0.00,,---,0.00,VWS V14.01,2013-04-17 00:48:00,
2013-04-16 18:53:00,26.1,2.8,29.85,North,7,0.0,4.0,36,0.00,,---,0.00,VWS V14.01,2013-04-17 00:53:00,
2013-04-16 18:58:00,25.9,3.2,29.85,North,357,8.3,8.3,37,0.00,,---,0.00,VWS V14.01,2013-04-17 00:58:00,
2013-04-16 19:03:00,25.7,3.0,29.85,North,357,3.1,8.3,37,0.00,,---,0.00,VWS V14.01,2013-04-17 01:03:00,
2013-04-16 19:08:00,25.3,3.3,29.85,NNE,30,2.7,5.4,38,0.00,,---,0.00,VWS V14.01,2013-04-17 01:08:00,
2013-04-16 19:13:00,25.3,3.9,29.85,North,2,5.4,5.4,39,0.00,,---,0.00,VWS V14.01,2013-04-17 01:13:00,
2013-04-16 19:18:00,25.2,3.7,29.85,NW,308,3.6,5.4,39,0.00,,---,0.00,VWS V14.01,2013-04-17 01:18:00,
2013-04-16 19:23:00,25.2,4.2,29.85,NNW,334,3.1,6.3,40,0.00,,---,0.00,VWS V14.01,2013-04-17 01:23:00,
2013-04-16 19:28:00,25.0,4.6,29.85,North,3,3.6,5.8,41,0.00,,---,0.00,VWS V14.01,2013-04-17 01:28:00,
2013-04-16 19:33:00,24.8,5.0,29.85,NNW,346,5.8,5.8,42,0.00,,---,0.00,VWS V14.01,2013-04-17 01:33:00,
2013-04-16 19:38:00,24.4,4.7,29.85,North,5,3.1,4.0,42,0.00,,---,0.00,VWS V14.01,2013-04-17 01:38:00,
2013-04-16 19:43:00,24.4,5.2,29.85,NNW,327,3.6,11.0,43,0.00,,---,0.00,VWS V14.01,2013-04-17 01:43:00,
2013-04-16 19:48:00,24.1,4.8,29.85,NNW,343,5.4,7.6,43,0.00,,---,0.00,VWS V14.01,2013-04-17 01:48:00,
2013-04-16 19:53:00,23.7,5.0,29.88,NNE,15,3.1,5.4,44,0.00,,---,0.00,VWS V14.01,2013-04-17 01:53:00,
2013-04-16 19:58:00,23.7,5.0,29.88,NE,36,2.7,8.3,44,0.00,,---,0.00,VWS V14.01,2013-04-17 01:58:00,
2013-04-16 20:03:00,23.5,5.3,29.88,ENE,72,5.4,5.4,45,0.00,,---,0.00,VWS V14.01,2013-04-17 02:03:00,
2013-04-16 20:08:00,23.5,5.3,29.88,NNE,12,4.0,6.3,45,0.00,,---,0.00,VWS V14.01,2013-04-17 02:08:00,
2013-04-16 20:13:00,23.4,5.2,29.88,North,349,3.1,5.8,45,0.00,,---,0.00,VWS V14.01,2013-04-17 02:13:00,
2013-04-16 20:18:00,23.2,5.0,29.88,NW,310,2.7,7.6,45,0.00,,---,0.00,VWS V14.01,2013-04-17 02:18:00,
2013-04-16 20:23:00,22.8,4.7,29.88,North,10,4.0,4.0,45,0.00,,---,0.00,VWS V14.01,2013-04-17 02:23:00,
2013-04-16 20:28:00,22.8,4.7,29.88,NNE,31,2.7,3.6,45,0.00,,---,0.00,VWS V14.01,2013-04-17 02:28:00,
2013-04-16 20:33:00,22.6,4.5,29.88,NE,55,3.6,4.0,45,0.00,,---,0.00,VWS V14.01,2013-04-17 02:33:00,
2013-04-16 20:38:00,22.5,4.8,29.88,NNE,24,0.0,0.0,46,0.00,,---,0.00,VWS V14.01,2013-04-17 02:38:00,
2013-04-16 20:43:00,22.3,4.7,29.88,NNE,24,0.0,2.2,46,0.00,,---,0.00,VWS V14.01,2013-04-17 02:43:00,
2013-04-16 20:48:00,22.1,5.0,29.88,NW,308,3.6,5.4,47,0.00,,---,0.00,VWS V14.01,2013-04-17 02:48:00,
2013-04-16 20:53:00,21.9,5.2,29.88,NW,324,3.6,4.5,48,0.00,,---,0.00,VWS V14.01,2013-04-17 02:53:00,
2013-04-16 20:58:00,21.7,5.5,29.88,NNE,15,5.4,6.3,49,0.00,,---,0.00,VWS V14.01,2013-04-17 02:58:00,
2013-04-16 21:03:00,21.6,5.8,29.88,NNE,21,0.0,2.7,50,0.00,,---,0.00,VWS V14.01,2013-04-17 03:03:00,
2013-04-16 21:08:00,21.6,5.8,29.91,NNE,33,0.0,0.0,50,0.00,,---,0.00,VWS V14.01,2013-04-17 03:08:00,
2013-04-16 21:13:00,21.2,6.3,29.91,North,7,0.0,0.0,52,0.00,,---,0.00,VWS V14.01,2013-04-17 03:13:00,
2013-04-16 21:18:00,21.2,6.8,29.91,NNE,12,3.6,4.0,53,0.00,,---,0.00,VWS V14.01,2013-04-17 03:18:00,
2013-04-16 21:23:00,21.0,7.0,29.91,North,7,0.0,0.0,54,0.00,,---,0.00,VWS V14.01,2013-04-17 03:23:00,
2013-04-16 21:28:00,20.8,7.2,29.91,NNE,14,0.0,0.0,55,0.00,,---,0.00,VWS V14.01,2013-04-17 03:28:00,
2013-04-16 21:33:00,20.7,7.5,29.91,NE,48,0.0,0.0,56,0.00,,---,0.00,VWS V14.01,2013-04-17 03:33:00,
2013-04-16 21:38:00,20.7,7.5,29.91,NE,50,3.1,4.9,56,0.00,,---,0.00,VWS V14.01,2013-04-17 03:38:00,
2013-04-16 21:43:00,20.5,7.3,29.91,NE,52,0.0,3.1,56,0.00,,---,0.00,VWS V14.01,2013-04-17 03:43:00,
2013-04-16 21:48:00,20.3,6.7,29.91,NNE,17,3.1,5.4,55,0.00,,---,0.00,VWS V14.01,2013-04-17 03:48:00,
2013-04-16 21:53:00,20.3,6.7,29.91,NNW,346,0.0,3.1,55,0.00,,---,0.00,VWS V14.01,2013-04-17 03:53:00,
2013-04-16 21:58:00,20.1,6.6,29.91,North,7,0.0,0.0,55,0.00,,---,0.00,VWS V14.01,2013-04-17 03:58:00,
2013-04-16 22:00:00,20.1,6.6,29.91,NW,319,4.0,4.0,55,0.00,,---,0.00,VWS V14.01,2013-04-17 04:00:00,
2013-04-16 22:05:00,20.1,6.6,29.91,NNW,329,0.0,0.0,55,0.00,,---,0.00,VWS V14.01,2013-04-17 04:05:00,
2013-04-16 22:10:00,19.9,6.8,29.91,NW,320,4.0,4.0,56,0.00,,---,0.00,VWS V14.01,2013-04-17 04:10:00,
2013-04-16 22:15:00,19.8,6.6,29.91,NW,323,2.7,3.6,56,0.00,,---,0.00,VWS V14.01,2013-04-17 04:15:00,
2013-04-16 22:20:00,19.8,7.0,29.91,NW,306,0.0,0.0,57,0.00,,---,0.00,VWS V14.01,2013-04-17 04:20:00,
2013-04-16 22:25:00,19.8,7.8,29.91,NW,311,3.1,3.1,59,0.00,,---,0.00,VWS V14.01,2013-04-17 04:25:00,
2013-04-16 22:30:00,19.8,8.1,29.91,NNW,340,0.0,0.0,60,0.00,,---,0.00,VWS V14.01,2013-04-17 04:30:00,
2013-04-16 22:35:00,19.6,8.0,29.91,NNW,340,0.0,0.0,60,0.00,,---,0.00,VWS V14.01,2013-04-17 04:35:00,
2013-04-16 22:40:00,19.6,8.0,29.91,SW,231,3.1,3.6,60,0.00,,---,0.00,VWS V14.01,2013-04-17 04:40:00,
2013-04-16 22:45:00,19.8,8.1,29.91,WNW,283,0.0,0.0,60,0.00,,---,0.00,VWS V14.01,2013-04-17 04:45:00,
2013-04-16 22:50:00,19.8,8.5,29.91,WNW,283,0.0,0.0,61,0.00,,---,0.00,VWS V14.01,2013-04-17 04:50:00,
2013-04-16 22:55:00,19.8,8.5,29.91,WSW,240,0.0,0.0,61,0.00,,---,0.00,VWS V14.01,2013-04-17 04:55:00,
2013-04-16 23:00:00,19.6,8.3,29.91,WSW,246,0.0,0.0,61,0.00,,---,0.00,VWS V14.01,2013-04-17 05:00:00,
2013-04-16 23:05:00,19.4,8.2,29.91,WSW,246,0.0,0.0,61,0.00,,---,0.00,VWS V14.01,2013-04-17 05:05:00,
2013-04-16 23:10:00,19.4,7.8,29.91,WSW,238,0.0,0.0,60,0.00,,---,0.00,VWS V14.01,2013-04-17 05:10:00,
2013-04-16 23:15:00,19.4,7.8,29.91,WSW,250,0.0,0.0,60,0.00,,---,0.00,VWS V14.01,2013-04-17 05:15:00,
2013-04-16 23:20:00,19.4,7.4,29.91,WSW,250,0.0,0.0,59,0.00,,---,0.00,VWS V14.01,2013-04-17 05:20:00,
2013-04-16 23:25:00,19.4,7.1,29.91,WSW,250,0.0,0.0,58,0.00,,---,0.00,VWS V14.01,2013-04-17 05:25:00,
2013-04-16 23:30:00,19.4,7.1,29.91,WSW,250,0.0,0.0,58,0.00,,---,0.00,VWS V14.01,2013-04-17 05:30:00,
2013-04-16 23:35:00,19.6,6.8,29.91,WSW,251,0.0,0.0,57,0.00,,---,0.00,VWS V14.01,2013-04-17 05:35:00,
2013-04-16 23:40:00,19.4,6.3,29.91,WSW,251,0.0,0.0,56,0.00,,---,0.00,VWS V14.01,2013-04-17 05:40:00,
2013-04-16 23:45:00,19.4,6.3,29.91,WSW,251,0.0,0.0,56,0.00,,---,0.00,VWS V14.01,2013-04-17 05:45:00,
2013-04-16 23:50:00,19.4,5.9,29.91,SW,223,0.0,0.0,55,0.00,,---,0.00,VWS V14.01,2013-04-17 05:50:00,
2013-04-16 23:55:00,19.4,5.9,29.91,WSW,237,0.0,0.0,55,0.00,,---,0.00,VWS V14.01,2013-04-17 05:55:00,